sensor_id;sensor_type;location;lat;lon;timestamp;temperature;humidity
64951;DHT22;51482;47.014;7.652;2023-03-17T00:00:42;4.30;99.90
64951;DHT22;51482;47.014;7.652;2023-03-17T00:03:21;4.70;99.90
64951;DHT22;51482;47.014;7.652;2023-03-17T00:05:47;4.60;99.90
64951;DHT22;51482;47.014;7.652;2023-03-17T00:08:22;4.00;99.90
64951;DHT22;51482;47.014;7.652;2023-03-17T00:10:49;4.50;99.90
64951;DHT22;51482;47.014;7.652;2023-03-17T00:13:14;4.50;99.90
64951;DHT22;51482;47.014;7.652;2023-03-17T00:15:40;4.40;99.90
64951;DHT22;51482;47.014;7.652;2023-03-17T00:18:12;4.60;99.90
64951;DHT22;51482;47.014;7.652;2023-03-17T00:20:38;4.50;99.90
64951;DHT22;51482;47.014;7.652;2023-03-17T00:23:04;4.50;99.90
64951;DHT22;51482;47.014;7.652;2023-03-17T00:25:32;4.50;99.90
64951;DHT22;51482;47.014;7.652;2023-03-17T00:27:58;4.00;99.90
64951;DHT22;51482;47.014;7.652;2023-03-17T00:30:25;4.30;99.90
64951;DHT22;51482;47.014;7.652;2023-03-17T00:32:53;4.10;99.90
64951;DHT22;51482;47.014;7.652;2023-03-17T00:35:26;4.40;99.90
64951;DHT22;51482;47.014;7.652;2023-03-17T00:37:53;3.70;99.90
64951;DHT22;51482;47.014;7.652;2023-03-17T00:40:24;4.20;99.90
64951;DHT22;51482;47.014;7.652;2023-03-17T00:42:52;4.40;99.90
64951;DHT22;51482;47.014;7.652;2023-03-17T00:45:21;4.40;99.90
64951;DHT22;51482;47.014;7.652;2023-03-17T00:47:49;3.70;99.90
64951;DHT22;51482;47.014;7.652;2023-03-17T00:50:20;3.10;99.90
64951;DHT22;51482;47.014;7.652;2023-03-17T00:52:48;4.10;99.90
64951;DHT22;51482;47.014;7.652;2023-03-17T00:55:15;4.10;99.90
64951;DHT22;51482;47.014;7.652;2023-03-17T00:57:41;3.50;99.90
64951;DHT22;51482;47.014;7.652;2023-03-17T01:00:27;4.10;99.90
64951;DHT22;51482;47.014;7.652;2023-03-17T01:02:55;3.50;99.90
64951;DHT22;51482;47.014;7.652;2023-03-17T01:05:23;3.80;99.90
64951;DHT22;51482;47.014;7.652;2023-03-17T01:07:51;3.90;99.90
64951;DHT22;51482;47.014;7.652;2023-03-17T01:10:25;4.00;99.90
64951;DHT22;51482;47.014;7.652;2023-03-17T01:12:52;3.40;99.90
64951;DHT22;51482;47.014;7.652;2023-03-17T01:15:19;3.40;99.90
64951;DHT22;51482;47.014;7.652;2023-03-17T01:17:46;3.90;99.90
64951;DHT22;51482;47.014;7.652;2023-03-17T01:20:23;4.00;99.90
64951;DHT22;51482;47.014;7.652;2023-03-17T01:22:49;3.30;99.90
64951;DHT22;51482;47.014;7.652;2023-03-17T01:25:16;3.30;99.90
64951;DHT22;51482;47.014;7.652;2023-03-17T01:27:42;4.00;99.90
64951;DHT22;51482;47.014;7.652;2023-03-17T01:30:53;3.90;99.90
64951;DHT22;51482;47.014;7.652;2023-03-17T01:33:12;3.30;99.90
64951;DHT22;51482;47.014;7.652;2023-03-17T01:35:39;3.30;99.90
64951;DHT22;51482;47.014;7.652;2023-03-17T01:38:05;3.90;99.90
64951;DHT22;51482;47.014;7.652;2023-03-17T01:40:36;3.90;99.90
64951;DHT22;51482;47.014;7.652;2023-03-17T01:48:59;3.30;99.90
64951;DHT22;51482;47.014;7.652;2023-03-17T01:51:55;3.40;99.90
64951;DHT22;51482;47.014;7.652;2023-03-17T01:57:18;3.40;99.90
64951;DHT22;51482;47.014;7.652;2023-03-17T01:59:49;3.70;99.90
64951;DHT22;51482;47.014;7.652;2023-03-17T02:02:21;3.90;99.90
64951;DHT22;51482;47.014;7.652;2023-03-17T02:04:50;3.90;99.90
64951;DHT22;51482;47.014;7.652;2023-03-17T02:07:18;3.70;99.90
64951;DHT22;51482;47.014;7.652;2023-03-17T02:09:45;3.80;99.90
64951;DHT22;51482;47.014;7.652;2023-03-17T02:12:11;3.70;99.90
64951;DHT22;51482;47.014;7.652;2023-03-17T02:14:38;3.20;99.90
64951;DHT22;51482;47.014;7.652;2023-03-17T02:17:04;3.80;99.90
64951;DHT22;51482;47.014;7.652;2023-03-17T02:19:29;3.70;99.90
64951;DHT22;51482;47.014;7.652;2023-03-17T02:21:57;3.60;99.90
64951;DHT22;51482;47.014;7.652;2023-03-17T02:27:04;3.20;99.90
64951;DHT22;51482;47.014;7.652;2023-03-17T02:29:33;3.20;99.90
64951;DHT22;51482;47.014;7.652;2023-03-17T02:31:59;3.20;99.90
64951;DHT22;51482;47.014;7.652;2023-03-17T02:34:25;3.80;99.90
64951;DHT22;51482;47.014;7.652;2023-03-17T02:36:51;3.80;99.90
64951;DHT22;51482;47.014;7.652;2023-03-17T02:39:16;3.20;99.90
64951;DHT22;51482;47.014;7.652;2023-03-17T02:41:42;3.70;99.90
64951;DHT22;51482;47.014;7.652;2023-03-17T02:44:07;3.60;99.90
64951;DHT22;51482;47.014;7.652;2023-03-17T02:46:33;2.60;99.90
64951;DHT22;51482;47.014;7.652;2023-03-17T02:48:59;3.70;99.90
64951;DHT22;51482;47.014;7.652;2023-03-17T02:51:27;3.10;99.90
64951;DHT22;51482;47.014;7.652;2023-03-17T02:53:52;3.60;99.90
64951;DHT22;51482;47.014;7.652;2023-03-17T02:56:18;3.70;99.90
64951;DHT22;51482;47.014;7.652;2023-03-17T02:58:43;3.80;99.90
64951;DHT22;51482;47.014;7.652;2023-03-17T03:01:09;3.10;99.90
64951;DHT22;51482;47.014;7.652;2023-03-17T03:03:34;3.60;99.90
64951;DHT22;51482;47.014;7.652;2023-03-17T03:06:00;3.80;99.90
64951;DHT22;51482;47.014;7.652;2023-03-17T03:08:27;3.70;99.90
64951;DHT22;51482;47.014;7.652;2023-03-17T03:10:52;3.10;99.90
64951;DHT22;51482;47.014;7.652;2023-03-17T03:13:19;3.60;99.90
64951;DHT22;51482;47.014;7.652;2023-03-17T03:15:46;2.90;99.90
64951;DHT22;51482;47.014;7.652;2023-03-17T03:18:11;3.70;99.90
64951;DHT22;51482;47.014;7.652;2023-03-17T03:20:37;3.60;99.90
64951;DHT22;51482;47.014;7.652;2023-03-17T03:23:03;3.50;99.90
64951;DHT22;51482;47.014;7.652;2023-03-17T03:25:29;3.60;99.90
64951;DHT22;51482;47.014;7.652;2023-03-17T03:27:54;3.40;99.90
64951;DHT22;51482;47.014;7.652;2023-03-17T03:30:20;3.40;99.90
64951;DHT22;51482;47.014;7.652;2023-03-17T03:32:45;2.90;99.90
64951;DHT22;51482;47.014;7.652;2023-03-17T03:35:11;3.00;99.90
64951;DHT22;51482;47.014;7.652;2023-03-17T03:37:37;3.40;99.90
64951;DHT22;51482;47.014;7.652;2023-03-17T03:40:03;3.60;99.90
64951;DHT22;51482;47.014;7.652;2023-03-17T03:42:31;3.00;99.90
64951;DHT22;51482;47.014;7.652;2023-03-17T03:44:57;3.50;99.90
64951;DHT22;51482;47.014;7.652;2023-03-17T03:47:22;3.70;99.90
64951;DHT22;51482;47.014;7.652;2023-03-17T03:49:48;3.50;99.90
64951;DHT22;51482;47.014;7.652;2023-03-17T03:52:13;3.50;99.90
64951;DHT22;51482;47.014;7.652;2023-03-17T03:54:39;3.60;99.90
64951;DHT22;51482;47.014;7.652;2023-03-17T03:57:05;2.90;99.90
64951;DHT22;51482;47.014;7.652;2023-03-17T03:59:30;3.50;99.90
64951;DHT22;51482;47.014;7.652;2023-03-17T04:01:56;3.50;99.90
64951;DHT22;51482;47.014;7.652;2023-03-17T04:04:22;3.60;99.90
64951;DHT22;51482;47.014;7.652;2023-03-17T04:06:47;3.60;99.90
64951;DHT22;51482;47.014;7.652;2023-03-17T04:09:13;3.40;99.90
64951;DHT22;51482;47.014;7.652;2023-03-17T04:11:38;2.90;99.90
64951;DHT22;51482;47.014;7.652;2023-03-17T04:14:04;3.30;99.90
64951;DHT22;51482;47.014;7.652;2023-03-17T04:16:30;3.60;99.90
64951;DHT22;51482;47.014;7.652;2023-03-17T04:18:56;3.40;99.90
64951;DHT22;51482;47.014;7.652;2023-03-17T04:21:22;3.40;99.90
64951;DHT22;51482;47.014;7.652;2023-03-17T04:23:47;3.60;99.90
64951;DHT22;51482;47.014;7.652;2023-03-17T04:26:13;3.40;99.90
64951;DHT22;51482;47.014;7.652;2023-03-17T04:28:39;3.50;99.90
64951;DHT22;51482;47.014;7.652;2023-03-17T04:31:05;3.40;99.90
64951;DHT22;51482;47.014;7.652;2023-03-17T04:33:31;3.40;99.90
64951;DHT22;51482;47.014;7.652;2023-03-17T04:35:57;3.10;99.90
64951;DHT22;51482;47.014;7.652;2023-03-17T04:38:23;3.20;99.90
64951;DHT22;51482;47.014;7.652;2023-03-17T04:40:49;3.40;99.90
64951;DHT22;51482;47.014;7.652;2023-03-17T04:43:15;3.40;99.90
64951;DHT22;51482;47.014;7.652;2023-03-17T04:45:41;3.50;99.90
64951;DHT22;51482;47.014;7.652;2023-03-17T04:48:06;3.30;99.90
64951;DHT22;51482;47.014;7.652;2023-03-17T04:50:32;3.50;99.90
64951;DHT22;51482;47.014;7.652;2023-03-17T04:52:57;3.30;99.90
64951;DHT22;51482;47.014;7.652;2023-03-17T04:55:23;3.40;99.90
64951;DHT22;51482;47.014;7.652;2023-03-17T04:57:48;3.30;99.90
64951;DHT22;51482;47.014;7.652;2023-03-17T05:00:14;2.70;99.90
64951;DHT22;51482;47.014;7.652;2023-03-17T05:02:40;2.80;99.90
64951;DHT22;51482;47.014;7.652;2023-03-17T05:05:06;3.30;99.90
64951;DHT22;51482;47.014;7.652;2023-03-17T05:07:31;2.80;99.90
64951;DHT22;51482;47.014;7.652;2023-03-17T05:09:57;2.90;99.90
64951;DHT22;51482;47.014;7.652;2023-03-17T05:12:22;3.30;99.90
64951;DHT22;51482;47.014;7.652;2023-03-17T05:14:48;3.20;99.90
64951;DHT22;51482;47.014;7.652;2023-03-17T05:17:14;3.30;99.90
64951;DHT22;51482;47.014;7.652;2023-03-17T05:19:39;3.10;99.90
64951;DHT22;51482;47.014;7.652;2023-03-17T05:22:05;2.70;99.90
64951;DHT22;51482;47.014;7.652;2023-03-17T05:24:30;3.20;99.90
64951;DHT22;51482;47.014;7.652;2023-03-17T05:26:56;1.70;99.90
64951;DHT22;51482;47.014;7.652;2023-03-17T05:29:22;2.60;99.90
64951;DHT22;51482;47.014;7.652;2023-03-17T05:31:47;3.30;99.90
64951;DHT22;51482;47.014;7.652;2023-03-17T05:34:13;3.20;99.90
64951;DHT22;51482;47.014;7.652;2023-03-17T05:36:39;3.10;99.90
64951;DHT22;51482;47.014;7.652;2023-03-17T05:39:05;2.90;99.90
64951;DHT22;51482;47.014;7.652;2023-03-17T05:41:31;3.20;99.90
64951;DHT22;51482;47.014;7.652;2023-03-17T05:43:58;3.20;99.90
64951;DHT22;51482;47.014;7.652;2023-03-17T05:46:23;3.20;99.90
64951;DHT22;51482;47.014;7.652;2023-03-17T05:48:49;3.40;99.90
64951;DHT22;51482;47.014;7.652;2023-03-17T05:51:14;3.10;99.90
64951;DHT22;51482;47.014;7.652;2023-03-17T05:53:40;3.10;99.90
64951;DHT22;51482;47.014;7.652;2023-03-17T05:56:06;3.10;99.90
64951;DHT22;51482;47.014;7.652;2023-03-17T05:58:32;2.50;99.90
64951;DHT22;51482;47.014;7.652;2023-03-17T06:00:58;3.20;99.90
64951;DHT22;51482;47.014;7.652;2023-03-17T06:03:23;2.80;99.90
64951;DHT22;51482;47.014;7.652;2023-03-17T06:05:49;3.20;99.90
64951;DHT22;51482;47.014;7.652;2023-03-17T06:08:14;3.40;99.90
64951;DHT22;51482;47.014;7.652;2023-03-17T06:10:40;3.40;99.90
64951;DHT22;51482;47.014;7.652;2023-03-17T06:13:07;3.30;99.90
64951;DHT22;51482;47.014;7.652;2023-03-17T06:15:33;3.40;99.90
64951;DHT22;51482;47.014;7.652;2023-03-17T06:18:01;3.30;99.90
64951;DHT22;51482;47.014;7.652;2023-03-17T06:20:27;3.30;99.90
64951;DHT22;51482;47.014;7.652;2023-03-17T06:22:53;3.20;99.90
64951;DHT22;51482;47.014;7.652;2023-03-17T06:25:18;3.10;99.90
64951;DHT22;51482;47.014;7.652;2023-03-17T06:27:44;3.60;99.90
64951;DHT22;51482;47.014;7.652;2023-03-17T06:30:10;3.50;99.90
64951;DHT22;51482;47.014;7.652;2023-03-17T06:32:36;3.10;99.90
64951;DHT22;51482;47.014;7.652;2023-03-17T06:35:02;3.60;99.90
64951;DHT22;51482;47.014;7.652;2023-03-17T06:37:30;3.10;99.90
64951;DHT22;51482;47.014;7.652;2023-03-17T06:39:55;3.60;99.90
64951;DHT22;51482;47.014;7.652;2023-03-17T06:42:22;3.60;99.90
64951;DHT22;51482;47.014;7.652;2023-03-17T06:44:47;3.40;99.90
64951;DHT22;51482;47.014;7.652;2023-03-17T06:47:16;3.70;99.90
64951;DHT22;51482;47.014;7.652;2023-03-17T06:49:42;3.30;99.90
64951;DHT22;51482;47.014;7.652;2023-03-17T06:52:11;3.40;99.90
64951;DHT22;51482;47.014;7.652;2023-03-17T06:54:37;4.00;99.90
64951;DHT22;51482;47.014;7.652;2023-03-17T06:57:03;4.00;99.90
64951;DHT22;51482;47.014;7.652;2023-03-17T06:59:28;3.90;99.90
64951;DHT22;51482;47.014;7.652;2023-03-17T07:01:55;4.10;99.90
64951;DHT22;51482;47.014;7.652;2023-03-17T07:04:22;4.00;99.90
64951;DHT22;51482;47.014;7.652;2023-03-17T07:06:52;3.80;99.90
64951;DHT22;51482;47.014;7.652;2023-03-17T07:09:17;4.30;99.90
64951;DHT22;51482;47.014;7.652;2023-03-17T07:11:43;3.60;99.90
64951;DHT22;51482;47.014;7.652;2023-03-17T07:14:08;4.60;99.90
64951;DHT22;51482;47.014;7.652;2023-03-17T07:16:34;4.60;99.90
64951;DHT22;51482;47.014;7.652;2023-03-17T07:19:02;4.70;99.90
64951;DHT22;51482;47.014;7.652;2023-03-17T07:21:27;4.50;99.90
64951;DHT22;51482;47.014;7.652;2023-03-17T07:23:53;4.50;99.90
64951;DHT22;51482;47.014;7.652;2023-03-17T07:26:19;4.70;99.90
64951;DHT22;51482;47.014;7.652;2023-03-17T07:28:44;4.90;99.90
64951;DHT22;51482;47.014;7.652;2023-03-17T07:31:10;5.10;99.90
64951;DHT22;51482;47.014;7.652;2023-03-17T07:33:39;5.10;99.90
64951;DHT22;51482;47.014;7.652;2023-03-17T07:36:06;5.00;99.90
64951;DHT22;51482;47.014;7.652;2023-03-17T07:38:33;5.60;99.90
64951;DHT22;51482;47.014;7.652;2023-03-17T07:40:59;6.40;99.90
64951;DHT22;51482;47.014;7.652;2023-03-17T07:43:25;6.20;99.90
64951;DHT22;51482;47.014;7.652;2023-03-17T07:45:51;6.80;99.90
64951;DHT22;51482;47.014;7.652;2023-03-17T07:48:21;6.50;99.90
64951;DHT22;51482;47.014;7.652;2023-03-17T07:50:47;6.70;99.90
64951;DHT22;51482;47.014;7.652;2023-03-17T07:53:12;6.80;99.90
64951;DHT22;51482;47.014;7.652;2023-03-17T07:55:38;7.10;99.90
64951;DHT22;51482;47.014;7.652;2023-03-17T07:58:04;7.90;99.90
64951;DHT22;51482;47.014;7.652;2023-03-17T08:00:30;7.70;99.90
64951;DHT22;51482;47.014;7.652;2023-03-17T08:02:57;8.50;99.90
64951;DHT22;51482;47.014;7.652;2023-03-17T08:05:23;8.70;99.90
64951;DHT22;51482;47.014;7.652;2023-03-17T08:07:49;8.80;99.90
64951;DHT22;51482;47.014;7.652;2023-03-17T08:10:15;8.90;99.90
64951;DHT22;51482;47.014;7.652;2023-03-17T08:12:41;9.00;99.90
64951;DHT22;51482;47.014;7.652;2023-03-17T08:15:07;8.40;99.90
64951;DHT22;51482;47.014;7.652;2023-03-17T08:17:36;8.40;99.90
64951;DHT22;51482;47.014;7.652;2023-03-17T08:20:04;8.00;99.90
64951;DHT22;51482;47.014;7.652;2023-03-17T08:22:30;8.60;99.90
64951;DHT22;51482;47.014;7.652;2023-03-17T08:24:55;8.60;99.90
64951;DHT22;51482;47.014;7.652;2023-03-17T08:27:21;9.00;99.90
64951;DHT22;51482;47.014;7.652;2023-03-17T08:29:47;9.50;99.90
64951;DHT22;51482;47.014;7.652;2023-03-17T08:32:15;9.30;99.90
64951;DHT22;51482;47.014;7.652;2023-03-17T08:34:43;9.80;99.90
64951;DHT22;51482;47.014;7.652;2023-03-17T08:37:14;10.50;99.90
64951;DHT22;51482;47.014;7.652;2023-03-17T08:39:40;10.10;99.90
64951;DHT22;51482;47.014;7.652;2023-03-17T08:42:06;10.70;99.90
64951;DHT22;51482;47.014;7.652;2023-03-17T08:44:31;10.40;99.90
64951;DHT22;51482;47.014;7.652;2023-03-17T08:46:57;10.70;99.90
64951;DHT22;51482;47.014;7.652;2023-03-17T08:49:27;10.40;99.90
64951;DHT22;51482;47.014;7.652;2023-03-17T08:51:52;12.30;99.90
64951;DHT22;51482;47.014;7.652;2023-03-17T08:54:18;11.30;99.90
64951;DHT22;51482;47.014;7.652;2023-03-17T08:56:44;11.60;99.90
64951;DHT22;51482;47.014;7.652;2023-03-17T08:59:10;11.90;99.90
64951;DHT22;51482;47.014;7.652;2023-03-17T09:01:35;12.60;99.90
64951;DHT22;51482;47.014;7.652;2023-03-17T09:04:02;13.30;99.90
64951;DHT22;51482;47.014;7.652;2023-03-17T09:06:28;12.60;99.90
64951;DHT22;51482;47.014;7.652;2023-03-17T09:08:54;13.50;99.90
64951;DHT22;51482;47.014;7.652;2023-03-17T09:11:26;12.70;99.90
64951;DHT22;51482;47.014;7.652;2023-03-17T09:13:52;13.00;99.90
64951;DHT22;51482;47.014;7.652;2023-03-17T09:16:18;13.20;99.90
64951;DHT22;51482;47.014;7.652;2023-03-17T09:18:45;14.20;99.90
64951;DHT22;51482;47.014;7.652;2023-03-17T09:21:12;14.20;99.90
64951;DHT22;51482;47.014;7.652;2023-03-17T09:23:38;13.80;99.90
64951;DHT22;51482;47.014;7.652;2023-03-17T09:26:04;13.80;99.90
64951;DHT22;51482;47.014;7.652;2023-03-17T09:28:29;13.70;99.90
64951;DHT22;51482;47.014;7.652;2023-03-17T09:31:00;13.70;99.90
64951;DHT22;51482;47.014;7.652;2023-03-17T09:33:26;13.80;99.90
64951;DHT22;51482;47.014;7.652;2023-03-17T09:35:52;13.90;99.90
64951;DHT22;51482;47.014;7.652;2023-03-17T09:38:18;14.10;99.90
64951;DHT22;51482;47.014;7.652;2023-03-17T09:40:55;14.80;99.90
64951;DHT22;51482;47.014;7.652;2023-03-17T09:51:43;15.30;98.70
64951;DHT22;51482;47.014;7.652;2023-03-17T09:56:48;15.10;99.10
64951;DHT22;51482;47.014;7.652;2023-03-17T10:01:46;15.70;98.10
64951;DHT22;51482;47.014;7.652;2023-03-17T10:04:19;15.70;94.50
64951;DHT22;51482;47.014;7.652;2023-03-17T10:06:45;15.80;93.00
64951;DHT22;51482;47.014;7.652;2023-03-17T10:12:09;15.50;92.40
64951;DHT22;51482;47.014;7.652;2023-03-17T10:17:20;16.00;91.30
64951;DHT22;51482;47.014;7.652;2023-03-17T10:19:59;16.20;91.30
64951;DHT22;51482;47.014;7.652;2023-03-17T10:22:50;16.20;91.30
64951;DHT22;51482;47.014;7.652;2023-03-17T10:25:21;16.60;91.50
64951;DHT22;51482;47.014;7.652;2023-03-17T10:30:50;16.80;90.50
64951;DHT22;51482;47.014;7.652;2023-03-17T10:33:17;17.40;84.40
64951;DHT22;51482;47.014;7.652;2023-03-17T10:35:43;17.30;80.60
64951;DHT22;51482;47.014;7.652;2023-03-17T10:38:18;17.70;83.10
64951;DHT22;51482;47.014;7.652;2023-03-17T10:40:47;17.80;82.00
64951;DHT22;51482;47.014;7.652;2023-03-17T10:43:21;17.70;76.00
64951;DHT22;51482;47.014;7.652;2023-03-17T10:46:04;18.00;74.30
64951;DHT22;51482;47.014;7.652;2023-03-17T10:48:37;18.60;76.50
64951;DHT22;51482;47.014;7.652;2023-03-17T10:51:09;18.90;75.50
64951;DHT22;51482;47.014;7.652;2023-03-17T10:53:38;19.30;71.10
64951;DHT22;51482;47.014;7.652;2023-03-17T10:56:10;19.70;64.50
64951;DHT22;51482;47.014;7.652;2023-03-17T10:58:47;20.20;64.20
64951;DHT22;51482;47.014;7.652;2023-03-17T11:03:46;20.50;60.10
64951;DHT22;51482;47.014;7.652;2023-03-17T11:06:15;20.50;59.10
64951;DHT22;51482;47.014;7.652;2023-03-17T11:08:54;20.50;59.90
64951;DHT22;51482;47.014;7.652;2023-03-17T11:11:44;20.50;61.30
64951;DHT22;51482;47.014;7.652;2023-03-17T11:14:13;20.90;58.90
64951;DHT22;51482;47.014;7.652;2023-03-17T11:19:14;21.50;57.50
64951;DHT22;51482;47.014;7.652;2023-03-17T11:22:06;22.60;58.40
64951;DHT22;51482;47.014;7.652;2023-03-17T11:24:49;22.20;54.20
64951;DHT22;51482;47.014;7.652;2023-03-17T11:30:07;23.40;53.90
64951;DHT22;51482;47.014;7.652;2023-03-17T11:35:55;23.40;54.50
64951;DHT22;51482;47.014;7.652;2023-03-17T11:38:27;23.10;55.70
64951;DHT22;51482;47.014;7.652;2023-03-17T11:43:45;22.70;52.20
64951;DHT22;51482;47.014;7.652;2023-03-17T11:51:27;22.90;51.40
64951;DHT22;51482;47.014;7.652;2023-03-17T11:56:56;22.70;50.60
64951;DHT22;51482;47.014;7.652;2023-03-17T11:59:40;23.20;51.10
64951;DHT22;51482;47.014;7.652;2023-03-17T12:10:43;22.80;52.10
64951;DHT22;51482;47.014;7.652;2023-03-17T12:16:01;23.00;50.50
64951;DHT22;51482;47.014;7.652;2023-03-17T12:18:38;23.20;49.90
64951;DHT22;51482;47.014;7.652;2023-03-17T12:24:10;23.40;50.40
64951;DHT22;51482;47.014;7.652;2023-03-17T12:29:26;23.10;50.10
64951;DHT22;51482;47.014;7.652;2023-03-17T12:32:03;23.20;49.40
64951;DHT22;51482;47.014;7.652;2023-03-17T12:34:41;23.40;51.00
64951;DHT22;51482;47.014;7.652;2023-03-17T12:37:08;23.40;49.30
64951;DHT22;51482;47.014;7.652;2023-03-17T12:39:34;23.70;49.50
64951;DHT22;51482;47.014;7.652;2023-03-17T12:43:21;24.10;49.60
64951;DHT22;51482;47.014;7.652;2023-03-17T12:53:37;25.30;47.10
64951;DHT22;51482;47.014;7.652;2023-03-17T12:58:52;25.00;45.80
64951;DHT22;51482;47.014;7.652;2023-03-17T13:06:41;23.90;46.60
64951;DHT22;51482;47.014;7.652;2023-03-17T13:11:57;22.90;47.40
64951;DHT22;51482;47.014;7.652;2023-03-17T13:14:25;22.80;48.20
64951;DHT22;51482;47.014;7.652;2023-03-17T13:17:01;22.70;50.60
64951;DHT22;51482;47.014;7.652;2023-03-17T13:19:32;22.80;49.60
64951;DHT22;51482;47.014;7.652;2023-03-17T13:24:51;23.30;49.50
64951;DHT22;51482;47.014;7.652;2023-03-17T13:27:46;23.10;46.90
64951;DHT22;51482;47.014;7.652;2023-03-17T13:33:17;23.50;49.00
64951;DHT22;51482;47.014;7.652;2023-03-17T13:41:17;23.20;48.10
64951;DHT22;51482;47.014;7.652;2023-03-17T13:44:10;23.20;48.50
64951;DHT22;51482;47.014;7.652;2023-03-17T13:49:27;23.40;47.90
64951;DHT22;51482;47.014;7.652;2023-03-17T13:52:13;23.80;48.10
64951;DHT22;51482;47.014;7.652;2023-03-17T13:56:01;23.10;46.00
64951;DHT22;51482;47.014;7.652;2023-03-17T14:00:35;23.00;46.50
64951;DHT22;51482;47.014;7.652;2023-03-17T14:03:02;22.90;46.20
64951;DHT22;51482;47.014;7.652;2023-03-17T14:05:32;22.90;47.20
64951;DHT22;51482;47.014;7.652;2023-03-17T14:08:02;22.80;47.30
64951;DHT22;51482;47.014;7.652;2023-03-17T14:10:30;22.80;47.50
64951;DHT22;51482;47.014;7.652;2023-03-17T14:15:48;22.10;47.50
64951;DHT22;51482;47.014;7.652;2023-03-17T14:18:32;22.20;47.90
64951;DHT22;51482;47.014;7.652;2023-03-17T14:20:59;22.20;50.10
64951;DHT22;51482;47.014;7.652;2023-03-17T14:23:26;22.40;49.00
64951;DHT22;51482;47.014;7.652;2023-03-17T14:25:57;22.50;47.30
64951;DHT22;51482;47.014;7.652;2023-03-17T14:28:33;22.70;48.40
64951;DHT22;51482;47.014;7.652;2023-03-17T14:31:05;22.80;47.00
64951;DHT22;51482;47.014;7.652;2023-03-17T14:33:38;22.70;46.80
64951;DHT22;51482;47.014;7.652;2023-03-17T14:36:09;23.50;50.00
64951;DHT22;51482;47.014;7.652;2023-03-17T14:38:37;22.90;48.90
64951;DHT22;51482;47.014;7.652;2023-03-17T14:41:15;23.20;49.70
64951;DHT22;51482;47.014;7.652;2023-03-17T14:43:42;23.60;48.30
64951;DHT22;51482;47.014;7.652;2023-03-17T14:46:29;24.30;48.80
64951;DHT22;51482;47.014;7.652;2023-03-17T14:49:18;24.40;47.60
64951;DHT22;51482;47.014;7.652;2023-03-17T14:51:46;23.80;48.10
64951;DHT22;51482;47.014;7.652;2023-03-17T14:54:16;23.40;48.30
64951;DHT22;51482;47.014;7.652;2023-03-17T14:56:46;22.80;46.90
64951;DHT22;51482;47.014;7.652;2023-03-17T14:59:21;22.60;49.90
64951;DHT22;51482;47.014;7.652;2023-03-17T15:01:53;22.30;49.30
64951;DHT22;51482;47.014;7.652;2023-03-17T15:04:31;21.90;49.60
64951;DHT22;51482;47.014;7.652;2023-03-17T15:07:00;21.60;50.90
64951;DHT22;51482;47.014;7.652;2023-03-17T15:09:33;21.50;50.70
64951;DHT22;51482;47.014;7.652;2023-03-17T15:12:18;21.40;50.70
64951;DHT22;51482;47.014;7.652;2023-03-17T15:14:46;21.30;52.30
64951;DHT22;51482;47.014;7.652;2023-03-17T15:17:17;21.10;51.30
64951;DHT22;51482;47.014;7.652;2023-03-17T15:19:46;20.90;51.50
64951;DHT22;51482;47.014;7.652;2023-03-17T15:22:43;21.20;52.30
64951;DHT22;51482;47.014;7.652;2023-03-17T15:27:58;20.40;52.70
64951;DHT22;51482;47.014;7.652;2023-03-17T15:30:24;20.00;52.40
64951;DHT22;51482;47.014;7.652;2023-03-17T15:32:56;20.20;52.90
64951;DHT22;51482;47.014;7.652;2023-03-17T15:35:22;20.20;53.40
64951;DHT22;51482;47.014;7.652;2023-03-17T15:37:47;20.60;53.30
64951;DHT22;51482;47.014;7.652;2023-03-17T15:40:13;20.00;52.60
64951;DHT22;51482;47.014;7.652;2023-03-17T15:42:40;20.00;53.20
64951;DHT22;51482;47.014;7.652;2023-03-17T15:45:07;20.30;52.50
64951;DHT22;51482;47.014;7.652;2023-03-17T15:47:35;19.90;52.80
64951;DHT22;51482;47.014;7.652;2023-03-17T15:50:25;20.10;54.30
64951;DHT22;51482;47.014;7.652;2023-03-17T15:52:54;20.10;51.90
64951;DHT22;51482;47.014;7.652;2023-03-17T15:55:23;20.10;51.80
64951;DHT22;51482;47.014;7.652;2023-03-17T15:57:49;19.90;53.60
64951;DHT22;51482;47.014;7.652;2023-03-17T16:00:17;20.40;53.20
64951;DHT22;51482;47.014;7.652;2023-03-17T16:02:43;19.30;52.40
64951;DHT22;51482;47.014;7.652;2023-03-17T16:05:26;20.00;52.10
64951;DHT22;51482;47.014;7.652;2023-03-17T16:07:53;19.60;52.20
64951;DHT22;51482;47.014;7.652;2023-03-17T16:10:30;19.00;52.40
64951;DHT22;51482;47.014;7.652;2023-03-17T16:12:59;18.90;53.90
64951;DHT22;51482;47.014;7.652;2023-03-17T16:15:27;18.80;52.60
64951;DHT22;51482;47.014;7.652;2023-03-17T16:18:00;19.40;53.10
64951;DHT22;51482;47.014;7.652;2023-03-17T16:20:53;18.50;51.50
64951;DHT22;51482;47.014;7.652;2023-03-17T16:23:21;18.60;55.30
64951;DHT22;51482;47.014;7.652;2023-03-17T16:25:48;18.70;56.80
64951;DHT22;51482;47.014;7.652;2023-03-17T16:28:20;18.90;54.70
64951;DHT22;51482;47.014;7.652;2023-03-17T16:30:47;18.90;55.90
64951;DHT22;51482;47.014;7.652;2023-03-17T16:35:43;19.20;59.40
64951;DHT22;51482;47.014;7.652;2023-03-17T16:38:13;19.30;57.30
64951;DHT22;51482;47.014;7.652;2023-03-17T16:40:39;19.20;55.50
64951;DHT22;51482;47.014;7.652;2023-03-17T16:43:43;19.10;56.90
64951;DHT22;51482;47.014;7.652;2023-03-17T16:46:05;19.00;58.40
64951;DHT22;51482;47.014;7.652;2023-03-17T16:48:31;18.90;59.20
64951;DHT22;51482;47.014;7.652;2023-03-17T16:50:58;18.70;58.50
64951;DHT22;51482;47.014;7.652;2023-03-17T16:53:24;18.40;60.50
64951;DHT22;51482;47.014;7.652;2023-03-17T16:55:51;18.40;61.80
64951;DHT22;51482;47.014;7.652;2023-03-17T16:58:19;18.70;62.90
64951;DHT22;51482;47.014;7.652;2023-03-17T17:00:50;18.90;62.70
64951;DHT22;51482;47.014;7.652;2023-03-17T17:03:17;18.00;61.80
64951;DHT22;51482;47.014;7.652;2023-03-17T17:05:42;18.00;62.80
64951;DHT22;51482;47.014;7.652;2023-03-17T17:08:11;18.00;62.10
64951;DHT22;51482;47.014;7.652;2023-03-17T17:10:37;17.90;64.70
64951;DHT22;51482;47.014;7.652;2023-03-17T17:13:05;18.00;64.90
64951;DHT22;51482;47.014;7.652;2023-03-17T17:15:31;18.20;64.30
64951;DHT22;51482;47.014;7.652;2023-03-17T17:18:02;17.80;64.40
64951;DHT22;51482;47.014;7.652;2023-03-17T17:20:37;17.40;63.10
64951;DHT22;51482;47.014;7.652;2023-03-17T17:23:05;17.00;63.90
64951;DHT22;51482;47.014;7.652;2023-03-17T17:25:31;16.60;65.10
64951;DHT22;51482;47.014;7.652;2023-03-17T17:27:58;16.40;65.90
64951;DHT22;51482;47.014;7.652;2023-03-17T17:30:26;15.60;67.30
64951;DHT22;51482;47.014;7.652;2023-03-17T17:32:53;16.10;68.60
64951;DHT22;51482;47.014;7.652;2023-03-17T17:35:21;15.80;68.60
64951;DHT22;51482;47.014;7.652;2023-03-17T17:37:47;15.90;69.30
64951;DHT22;51482;47.014;7.652;2023-03-17T17:40:16;15.50;69.60
64951;DHT22;51482;47.014;7.652;2023-03-17T17:42:42;16.00;70.70
64951;DHT22;51482;47.014;7.652;2023-03-17T17:45:11;15.00;70.60
64951;DHT22;51482;47.014;7.652;2023-03-17T17:47:36;14.80;70.70